Time;durP1;ratioP1;P1;durP2;ratioP2;P2;SDS_P1;SDS_P2;PMS_P1;PMS_P2;Temp;Humidity;BMP_temperature;BMP_pressure;BME280_temperature;BME280_humidity;BME280_pressure;Samples;Min_cycle;Max_cycle;Signal;HPM_P1;HPM_P2
2022/02/10 00:20:59;;;;;;;53.93;15.27;;;;;;;;;;4998067;28;20510;-74
2022/02/10 00:36:24;;;;;;;52.10;13.60;;;;;;;;;;4997485;28;20057;-74
2022/02/10 00:38:58;;;;;;;45.90;14.10;;;;;;;;;;4997077;28;20041;-74
2022/02/10 00:41:24;;;;;;;52.93;15.03;;;;;;;;;;4997212;28;20025;-74
2022/02/10 00:43:49;;;;;;;48.10;14.17;;;;;;;;;;4998235;28;20034;-74
2022/02/10 00:46:15;;;;;;;47.37;14.33;;;;;;;;;;5000113;28;20207;-74
2022/02/10 00:48:40;;;;;;;54.33;14.93;;;;;;;;;;5000740;28;20014;-75
2022/02/10 00:51:06;;;;;;;49.47;15.13;;;;;;;;;;5000152;28;20760;-74
2022/02/10 00:53:33;;;;;;;51.93;13.83;;;;;;;;;;5000586;28;20382;-74
2022/02/10 00:55:58;;;;;;;49.27;13.80;;;;;;;;;;5004867;28;20101;-74
2022/02/10 00:58:26;;;;;;;49.37;14.53;;;;;;;;;;4999537;28;20526;-74
2022/02/10 01:30:14;;;;;;;38.20;13.53;;;;;;;;;;4999806;28;20095;-74
2022/02/10 01:32:42;;;;;;;40.80;13.17;;;;;;;;;;4999801;28;20185;-74
2022/02/10 01:35:10;;;;;;;40.10;12.97;;;;;;;;;;4999827;28;20042;-74
2022/02/10 01:37:37;;;;;;;36.40;12.70;;;;;;;;;;4999214;28;20022;-74
2022/02/10 01:40:21;;;;;;;35.73;12.60;;;;;;;;;;4999485;28;20259;-74
2022/02/10 02:04:11;;;;;;;39.83;12.00;;;;;;;;;;4998218;28;20100;-74
2022/02/10 02:06:43;;;;;;;33.60;11.13;;;;;;;;;;4999539;28;20034;-74
2022/02/10 02:09:11;;;;;;;;;;;;;;;;;;5000169;28;20739;-74
2022/02/10 02:11:39;;;;;;;34.90;11.60;;;;;;;;;;4999116;28;20321;-74
2022/02/10 02:14:07;;;;;;;33.50;12.00;;;;;;;;;;4999543;28;20106;-74
2022/02/10 02:16:33;;;;;;;37.90;11.93;;;;;;;;;;4998604;28;20029;-74
2022/02/10 02:18:58;;;;;;;39.83;12.60;;;;;;;;;;5003927;28;20017;-74
2022/02/10 02:21:24;;;;;;;33.97;11.27;;;;;;;;;;5003098;28;20029;-74
2022/02/10 02:23:49;;;;;;;36.83;12.00;;;;;;;;;;4999867;28;20021;-74
2022/02/10 02:26:20;;;;;;;37.67;11.97;;;;;;;;;;4999263;28;20045;-74
2022/02/10 02:28:50;;;;;;;42.27;12.70;;;;;;;;;;5001147;28;20064;-74
2022/02/10 02:31:22;;;;;;;40.03;12.63;;;;;;;;;;5002735;28;20749;-74
2022/02/10 03:06:38;;;;;;;47.10;13.60;;;;;;;;;;5019274;28;20209;-74
2022/02/10 03:09:08;;;;;;;39.47;13.13;;;;;;;;;;5019865;28;20034;-74
2022/02/10 03:11:36;;;;;;;39.83;13.40;;;;;;;;;;5018688;28;20099;-74
2022/02/10 03:14:07;;;;;;;41.27;13.53;;;;;;;;;;5008840;28;20034;-74
2022/02/10 03:22:04;;;;;;;51.03;14.20;;;;;;;;;;5018396;28;20506;-74
2022/02/10 04:13:14;;;;;;;45.10;13.97;;;;;;;;;;5001140;28;20084;-74
2022/02/10 05:34:31;;;;;;;30.40;13.03;;;;;;;;;;4957605;28;20121;-74
2022/02/10 05:36:59;;;;;;;29.97;12.50;;;;;;;;;;4957736;28;20108;-73
2022/02/10 05:39:27;;;;;;;32.63;13.37;;;;;;;;;;4968609;28;20017;-73
2022/02/10 05:52:22;;;;;;;30.37;12.83;;;;;;;;;;4996529;28;20566;-73
2022/02/10 05:57:23;;;;;;;29.03;12.53;;;;;;;;;;4996137;28;20064;-74
2022/02/10 06:46:54;;;;;;;29.93;12.37;;;;;;;;;;4968001;28;20262;-74
2022/02/10 06:57:56;;;;;;;24.07;11.67;;;;;;;;;;4960378;28;20357;-74
2022/02/10 07:03:50;;;;;;;31.97;12.93;;;;;;;;;;4956956;28;20472;-75
2022/02/10 07:54:03;;;;;;;6.80;2.47;;;;;;;;;;4939949;28;20054;-75
2022/02/10 07:59:13;;;;;;;10.50;2.90;;;;;;;;;;4959335;28;20242;-75
2022/02/10 08:26:39;;;;;;;10.07;2.77;;;;;;;;;;5002107;28;20497;-76
2022/02/10 08:50:58;;;;;;;11.87;4.07;;;;;;;;;;5002737;28;20509;-76
2022/02/10 08:56:15;;;;;;;17.30;5.53;;;;;;;;;;5023740;28;20037;-76
2022/02/10 09:02:16;;;;;;;8.60;3.50;;;;;;;;;;4999559;28;20050;-75
2022/02/10 09:04:37;;;;;;;9.77;3.07;;;;;;;;;;5005289;28;20045;-75
2022/02/10 09:10:05;;;;;;;7.57;3.33;;;;;;;;;;5000116;28;20033;-76
2022/02/10 09:12:55;;;;;;;9.13;3.47;;;;;;;;;;4999485;28;20092;-75
2022/02/10 10:03:55;;;;;;;10.17;4.17;;;;;;;;;;5022120;28;20121;-75
2022/02/10 10:06:39;;;;;;;13.43;4.17;;;;;;;;;;5023824;28;20545;-75
2022/02/10 10:15:05;;;;;;;10.23;3.93;;;;;;;;;;5024246;28;20060;-75
2022/02/10 10:22:47;;;;;;;11.20;4.53;;;;;;;;;;5019652;28;20071;-75
2022/02/10 10:55:50;;;;;;;10.70;4.50;;;;;;;;;;5018750;28;20026;-76
2022/02/10 10:58:29;;;;;;;9.93;4.50;;;;;;;;;;5016847;28;20667;-76
2022/02/10 11:07:22;;;;;;;7.17;3.37;;;;;;;;;;5005641;28;20033;-75
2022/02/10 11:36:31;;;;;;;9.27;3.13;;;;;;;;;;5006729;28;20660;-74
2022/02/10 11:42:02;;;;;;;12.60;3.63;;;;;;;;;;5014836;28;20037;-75
2022/02/10 11:45:02;;;;;;;9.70;3.00;;;;;;;;;;5015886;28;20038;-75
2022/02/10 12:38:26;;;;;;;8.07;2.60;;;;;;;;;;5011281;28;20100;-74
2022/02/10 13:49:25;;;;;;;5.83;1.77;;;;;;;;;;4985126;28;20100;-76
2022/02/10 14:11:41;;;;;;;6.13;1.73;;;;;;;;;;5001616;28;20036;-75
2022/02/10 14:16:29;;;;;;;8.00;1.58;;;;;;;;;;5003549;28;20029;-75
2022/02/10 14:18:53;;;;;;;4.63;1.50;;;;;;;;;;5003363;28;20109;-75
2022/02/10 14:21:24;;;;;;;5.40;1.70;;;;;;;;;;5006817;28;20025;-76
2022/02/10 14:28:45;;;;;;;5.35;1.83;;;;;;;;;;4996971;28;20021;-74
2022/02/10 14:31:11;;;;;;;4.50;1.40;;;;;;;;;;5009146;28;20068;-75
2022/02/10 14:33:38;;;;;;;5.43;1.70;;;;;;;;;;5010710;28;20076;-75
2022/02/10 14:36:17;;;;;;;5.93;1.93;;;;;;;;;;5009198;28;20034;-75
2022/02/10 15:46:30;;;;;;;6.80;1.43;;;;;;;;;;5006984;28;20029;-74
2022/02/10 15:54:33;;;;;;;2.80;1.30;;;;;;;;;;5025712;28;20084;-74
2022/02/10 16:10:49;;;;;;;6.37;1.80;;;;;;;;;;5024821;28;20045;-74
2022/02/10 16:18:42;;;;;;;4.23;1.40;;;;;;;;;;5026776;28;20013;-73
2022/02/10 16:21:08;;;;;;;3.97;1.47;;;;;;;;;;5026826;28;20036;-73
2022/02/10 16:23:35;;;;;;;7.23;2.10;;;;;;;;;;5026340;28;20033;-73
2022/02/10 16:26:16;;;;;;;3.30;1.10;;;;;;;;;;5029197;28;20460;-73
2022/02/10 16:28:42;;;;;;;7.78;1.58;;;;;;;;;;5026322;28;20740;-74
2022/02/10 16:31:16;;;;;;;6.23;1.20;;;;;;;;;;4992186;28;20026;-74
2022/02/10 16:33:43;;;;;;;7.17;1.33;;;;;;;;;;5011233;28;20018;-74
2022/02/10 16:36:16;;;;;;;3.33;1.20;;;;;;;;;;5009778;28;20042;-73
2022/02/10 16:38:41;;;;;;;6.10;1.40;;;;;;;;;;5012436;28;20022;-73
2022/02/10 16:41:07;;;;;;;6.73;1.93;;;;;;;;;;5013335;28;20035;-74
2022/02/10 16:43:32;;;;;;;3.93;1.50;;;;;;;;;;5012662;28;20022;-74
2022/02/10 16:45:59;;;;;;;6.27;1.47;;;;;;;;;;5013823;28;20030;-74
2022/02/10 16:48:25;;;;;;;4.20;1.33;;;;;;;;;;5008276;28;20045;-75
2022/02/10 16:50:50;;;;;;;9.47;1.80;;;;;;;;;;5007194;28;20030;-75
2022/02/10 16:53:20;;;;;;;3.30;1.43;;;;;;;;;;5009345;28;20082;-75
2022/02/10 16:56:10;;;;;;;7.23;1.87;;;;;;;;;;5015311;28;20069;-76
2022/02/10 17:37:27;;;;;;;8.87;1.90;;;;;;;;;;5003321;28;20018;-76
2022/02/10 17:45:37;;;;;;;11.93;2.37;;;;;;;;;;5003563;28;20036;-75
2022/02/10 17:53:38;;;;;;;7.87;1.87;;;;;;;;;;5003932;28;20061;-77
2022/02/10 17:56:04;;;;;;;5.97;1.70;;;;;;;;;;5008027;28;20029;-75
2022/02/10 17:58:31;;;;;;;10.93;1.87;;;;;;;;;;5004929;28;20363;-75
2022/02/10 18:00:57;;;;;;;6.13;2.40;;;;;;;;;;5003741;28;20430;-76
2022/02/10 18:03:22;;;;;;;10.43;1.90;;;;;;;;;;5003034;28;20057;-78
2022/02/10 18:06:20;;;;;;;5.83;1.77;;;;;;;;;;5003193;28;20692;-78
2022/02/10 18:08:51;;;;;;;7.63;1.60;;;;;;;;;;5003180;28;20033;-78
2022/02/10 18:14:08;;;;;;;6.23;1.87;;;;;;;;;;5019740;28;20030;-78
2022/02/10 18:16:39;;;;;;;7.53;1.80;;;;;;;;;;5019476;28;20048;-78
2022/02/10 18:19:17;;;;;;;6.32;2.05;;;;;;;;;;5020116;28;20025;-78
2022/02/10 19:10:08;;;;;;;6.83;3.03;;;;;;;;;;5017887;28;20458;-77
2022/02/10 19:12:43;;;;;;;11.17;3.50;;;;;;;;;;5020855;28;20083;-77
2022/02/10 19:17:43;;;;;;;12.10;2.63;;;;;;;;;;5020893;28;20052;-77
2022/02/10 19:20:09;;;;;;;11.00;3.50;;;;;;;;;;5020367;28;20060;-77
2022/02/10 19:22:35;;;;;;;7.70;2.90;;;;;;;;;;5020746;28;20101;-77
2022/02/10 19:25:00;;;;;;;9.17;2.90;;;;;;;;;;5020409;28;20021;-77
2022/02/10 19:27:25;;;;;;;5.97;2.70;;;;;;;;;;5020441;28;20405;-77
2022/02/10 19:29:58;;;;;;;7.73;2.20;;;;;;;;;;5020384;28;20038;-77
2022/02/10 19:32:26;;;;;;;16.20;2.97;;;;;;;;;;5020790;28;20052;-77
2022/02/10 19:34:54;;;;;;;8.13;2.37;;;;;;;;;;5019720;28;20028;-77
2022/02/10 19:37:19;;;;;;;12.83;3.27;;;;;;;;;;5020743;28;20037;-77
2022/02/10 19:39:51;;;;;;;9.43;2.80;;;;;;;;;;5020202;28;20422;-77
2022/02/10 19:42:16;;;;;;;5.95;2.30;;;;;;;;;;5020738;28;20017;-77
2022/02/10 19:44:41;;;;;;;13.93;2.67;;;;;;;;;;5020194;28;20056;-77
2022/02/10 19:47:06;;;;;;;10.27;2.70;;;;;;;;;;5008331;28;20045;-77
2022/02/10 19:49:32;;;;;;;10.03;3.10;;;;;;;;;;5003538;28;20069;-77
2022/02/10 19:51:57;;;;;;;7.80;2.10;;;;;;;;;;5003935;28;20026;-77
2022/02/10 19:54:34;;;;;;;8.73;3.00;;;;;;;;;;5007338;28;20056;-77
2022/02/10 19:56:59;;;;;;;8.07;2.50;;;;;;;;;;4995995;28;20049;-77
2022/02/10 19:59:27;;;;;;;8.63;2.47;;;;;;;;;;5007641;28;20064;-77
2022/02/10 20:01:53;;;;;;;8.70;3.10;;;;;;;;;;5003124;28;20621;-78
2022/02/10 20:04:20;;;;;;;7.43;2.40;;;;;;;;;;5003347;28;20406;-77
2022/02/10 20:06:45;;;;;;;7.23;2.00;;;;;;;;;;5003243;28;20049;-77
2022/02/10 20:09:11;;;;;;;3.87;1.70;;;;;;;;;;5004760;28;20026;-77
2022/02/10 20:11:36;;;;;;;7.50;2.10;;;;;;;;;;5003022;28;20491;-77
2022/02/10 20:14:02;;;;;;;4.37;1.53;;;;;;;;;;5003517;28;20510;-77
2022/02/10 20:16:27;;;;;;;10.53;1.90;;;;;;;;;;5005186;28;20026;-77
2022/02/10 20:18:52;;;;;;;6.83;2.30;;;;;;;;;;5004195;28;20489;-77
2022/02/10 20:21:18;;;;;;;3.97;1.87;;;;;;;;;;5002831;28;20043;-77
2022/02/10 20:23:44;;;;;;;9.37;2.53;;;;;;;;;;5003627;28;20029;-77
2022/02/10 20:26:10;;;;;;;9.60;2.20;;;;;;;;;;5003657;28;20711;-77
2022/02/10 20:28:36;;;;;;;7.87;2.57;;;;;;;;;;5003098;28;20025;-77
2022/02/10 20:31:01;;;;;;;12.40;3.47;;;;;;;;;;5003051;28;20029;-77
2022/02/10 20:33:29;;;;;;;8.93;2.57;;;;;;;;;;5003902;28;20035;-77
2022/02/10 20:35:57;;;;;;;8.10;3.00;;;;;;;;;;5003913;28;20026;-78
2022/02/10 20:38:23;;;;;;;11.97;3.33;;;;;;;;;;5006496;28;20013;-77
2022/02/10 20:40:59;;;;;;;8.83;3.20;;;;;;;;;;5006254;28;20645;-78
2022/02/10 20:43:25;;;;;;;9.30;4.00;;;;;;;;;;4993565;28;20667;-78
2022/02/10 20:46:00;;;;;;;13.27;4.07;;;;;;;;;;5006531;28;20118;-78
2022/02/10 20:48:28;;;;;;;7.63;2.60;;;;;;;;;;4994890;28;20075;-78
2022/02/10 20:50:56;;;;;;;9.03;2.57;;;;;;;;;;5009269;28;20040;-78
2022/02/10 20:53:24;;;;;;;7.60;2.47;;;;;;;;;;5006347;28;20026;-78
2022/02/10 20:55:49;;;;;;;9.37;2.60;;;;;;;;;;5005985;28;20029;-78
2022/02/10 20:58:19;;;;;;;8.37;2.60;;;;;;;;;;5006127;28;20034;-78
2022/02/10 21:00:44;;;;;;;14.73;4.43;;;;;;;;;;5006215;28;20032;-78
2022/02/10 21:03:10;;;;;;;6.33;2.30;;;;;;;;;;5005736;28;20576;-78
2022/02/10 21:05:39;;;;;;;8.43;2.23;;;;;;;;;;5006497;28;20113;-78
2022/02/10 21:08:33;;;;;;;12.20;2.60;;;;;;;;;;5006211;28;20236;-77
2022/02/10 21:11:00;;;;;;;7.80;2.70;;;;;;;;;;4999671;28;20108;-78
2022/02/10 21:13:25;;;;;;;7.53;3.00;;;;;;;;;;5007897;28;20034;-78
2022/02/10 21:15:52;;;;;;;9.10;2.50;;;;;;;;;;5008630;28;20475;-78
2022/02/10 21:18:19;;;;;;;8.87;2.57;;;;;;;;;;5007323;28;20489;-78
2022/02/10 21:20:44;;;;;;;9.73;2.77;;;;;;;;;;5008812;28;20021;-78
2022/02/10 21:25:41;;;;;;;9.03;2.93;;;;;;;;;;5006848;28;20037;-78
2022/02/10 21:28:31;;;;;;;7.53;2.43;;;;;;;;;;5007966;28;20296;-77
2022/02/10 21:30:56;;;;;;;8.37;2.20;;;;;;;;;;5009985;28;20060;-78
2022/02/10 21:38:36;;;;;;;11.17;3.37;;;;;;;;;;4995759;28;20127;-78
2022/02/10 21:59:50;;;;;;;4.73;2.20;;;;;;;;;;5029452;28;20112;-77
2022/02/10 22:18:38;;;;;;;10.47;2.57;;;;;;;;;;5024301;28;20057;-75
2022/02/10 22:21:06;;;;;;;7.90;2.17;;;;;;;;;;5008810;28;20081;-75
2022/02/10 22:23:34;;;;;;;5.77;2.10;;;;;;;;;;5010322;28;20026;-75
2022/02/10 22:26:03;;;;;;;5.00;2.10;;;;;;;;;;5009792;28;20026;-75
2022/02/10 22:33:56;;;;;;;6.27;1.73;;;;;;;;;;4996106;28;20052;-78
2022/02/10 22:36:22;;;;;;;8.10;1.80;;;;;;;;;;5008640;28;20089;-78
2022/02/10 22:38:50;;;;;;;7.33;2.17;;;;;;;;;;5008950;28;20101;-78
2022/02/10 22:41:16;;;;;;;8.37;1.70;;;;;;;;;;5008105;28;20390;-78
2022/02/10 22:43:46;;;;;;;8.03;2.10;;;;;;;;;;5010386;28;20233;-78
2022/02/10 22:46:12;;;;;;;10.73;2.67;;;;;;;;;;5011595;28;20033;-78
2022/02/10 22:48:37;;;;;;;10.63;1.77;;;;;;;;;;5012959;28;20029;-78
2022/02/10 22:51:03;;;;;;;7.27;2.70;;;;;;;;;;5013444;28;20099;-78
2022/02/10 22:53:28;;;;;;;8.43;1.77;;;;;;;;;;5012598;28;20475;-78
2022/02/10 22:55:54;;;;;;;13.03;1.83;;;;;;;;;;5017841;28;20018;-78
2022/02/10 22:58:19;;;;;;;6.17;1.93;;;;;;;;;;5015280;28;20026;-78
2022/02/10 23:00:48;;;;;;;7.23;1.87;;;;;;;;;;5015020;28;20386;-77
2022/02/10 23:03:23;;;;;;;7.57;1.77;;;;;;;;;;5016418;28;20133;-77
2022/02/10 23:05:49;;;;;;;8.60;2.03;;;;;;;;;;5014879;28;20033;-77
2022/02/10 23:08:14;;;;;;;8.23;2.23;;;;;;;;;;5013303;28;20033;-77
2022/02/10 23:13:05;;;;;;;22.03;2.93;;;;;;;;;;5014148;28;20037;-77
2022/02/10 23:15:36;;;;;;;11.37;2.13;;;;;;;;;;5011820;28;20733;-77
2022/02/10 23:18:04;;;;;;;9.20;2.72;;;;;;;;;;5013461;28;20018;-78
2022/02/10 23:20:29;;;;;;;9.90;1.73;;;;;;;;;;5004372;28;20108;-78
2022/02/10 23:22:55;;;;;;;8.70;1.73;;;;;;;;;;5014972;28;20057;-78
2022/02/10 23:25:23;;;;;;;3.93;1.40;;;;;;;;;;5011808;28;20018;-77
2022/02/10 23:27:49;;;;;;;6.67;1.37;;;;;;;;;;5012469;28;20101;-77
2022/02/10 23:30:15;;;;;;;5.40;1.30;;;;;;;;;;5012933;28;20084;-77
2022/02/10 23:32:41;;;;;;;7.47;1.30;;;;;;;;;;5013886;28;20024;-77
2022/02/10 23:35:16;;;;;;;9.50;2.30;;;;;;;;;;5013721;28;20487;-77
2022/02/10 23:37:41;;;;;;;7.97;2.10;;;;;;;;;;5015261;28;20393;-78
2022/02/10 23:40:07;;;;;;;5.80;1.87;;;;;;;;;;5012876;28;20030;-78
2022/02/10 23:42:33;;;;;;;14.33;2.40;;;;;;;;;;5014296;28;20053;-78
2022/02/10 23:45:09;;;;;;;8.90;2.07;;;;;;;;;;5011423;28;20052;-78
2022/02/10 23:47:35;;;;;;;12.67;2.73;;;;;;;;;;5012596;28;20076;-78
2022/02/10 23:50:00;;;;;;;8.53;2.17;;;;;;;;;;5011795;28;20030;-78
2022/02/10 23:52:26;;;;;;;8.53;1.80;;;;;;;;;;5013583;28;20041;-78
2022/02/10 23:54:57;;;;;;;5.73;1.60;;;;;;;;;;5013610;28;20041;-77
